sensor_id;sensor_type;location;lat;lon;timestamp;temperature;humidity
18721;DHT22;9489;50.948;3.114;2023-05-10T00:00:57;13.00;99.90
18721;DHT22;9489;50.948;3.114;2023-05-10T00:03:23;13.00;99.90
18721;DHT22;9489;50.948;3.114;2023-05-10T00:05:48;13.10;99.90
18721;DHT22;9489;50.948;3.114;2023-05-10T00:08:14;13.10;99.90
18721;DHT22;9489;50.948;3.114;2023-05-10T00:10:40;13.10;99.90
18721;DHT22;9489;50.948;3.114;2023-05-10T00:13:06;13.10;99.90
18721;DHT22;9489;50.948;3.114;2023-05-10T00:15:32;13.10;99.90
18721;DHT22;9489;50.948;3.114;2023-05-10T00:17:57;13.10;99.90
18721;DHT22;9489;50.948;3.114;2023-05-10T00:20:23;13.10;99.90
18721;DHT22;9489;50.948;3.114;2023-05-10T00:22:49;13.10;99.90
18721;DHT22;9489;50.948;3.114;2023-05-10T00:25:14;13.10;99.90
18721;DHT22;9489;50.948;3.114;2023-05-10T00:27:40;13.10;99.90
18721;DHT22;9489;50.948;3.114;2023-05-10T00:30:06;13.10;99.90
18721;DHT22;9489;50.948;3.114;2023-05-10T00:32:32;13.00;99.90
18721;DHT22;9489;50.948;3.114;2023-05-10T00:34:58;13.00;99.90
18721;DHT22;9489;50.948;3.114;2023-05-10T00:37:23;13.00;99.90
18721;DHT22;9489;50.948;3.114;2023-05-10T00:39:50;13.00;99.90
18721;DHT22;9489;50.948;3.114;2023-05-10T00:42:16;13.00;99.90
18721;DHT22;9489;50.948;3.114;2023-05-10T00:44:41;13.10;99.90
18721;DHT22;9489;50.948;3.114;2023-05-10T00:47:07;13.10;99.90
18721;DHT22;9489;50.948;3.114;2023-05-10T00:49:34;13.10;99.90
18721;DHT22;9489;50.948;3.114;2023-05-10T00:52:00;13.10;99.90
18721;DHT22;9489;50.948;3.114;2023-05-10T00:54:27;13.10;99.90
18721;DHT22;9489;50.948;3.114;2023-05-10T00:56:53;13.10;99.90
18721;DHT22;9489;50.948;3.114;2023-05-10T00:59:19;13.20;99.90
18721;DHT22;9489;50.948;3.114;2023-05-10T01:01:45;13.20;99.90
18721;DHT22;9489;50.948;3.114;2023-05-10T01:04:15;13.20;99.90
18721;DHT22;9489;50.948;3.114;2023-05-10T01:06:43;13.20;99.90
18721;DHT22;9489;50.948;3.114;2023-05-10T01:09:10;13.20;99.90
18721;DHT22;9489;50.948;3.114;2023-05-10T01:11:38;13.20;99.90
18721;DHT22;9489;50.948;3.114;2023-05-10T01:14:04;13.10;99.90
18721;DHT22;9489;50.948;3.114;2023-05-10T01:16:35;13.20;99.90
18721;DHT22;9489;50.948;3.114;2023-05-10T01:19:01;13.20;99.90
18721;DHT22;9489;50.948;3.114;2023-05-10T01:21:42;13.10;99.90
18721;DHT22;9489;50.948;3.114;2023-05-10T01:24:28;13.10;99.90
18721;DHT22;9489;50.948;3.114;2023-05-10T01:35:34;13.10;99.90
18721;DHT22;9489;50.948;3.114;2023-05-10T01:38:14;13.10;99.90
18721;DHT22;9489;50.948;3.114;2023-05-10T01:40:43;13.10;99.90
18721;DHT22;9489;50.948;3.114;2023-05-10T01:43:19;13.10;99.90
18721;DHT22;9489;50.948;3.114;2023-05-10T01:46:08;13.10;99.90
18721;DHT22;9489;50.948;3.114;2023-05-10T01:48:47;13.10;99.90
18721;DHT22;9489;50.948;3.114;2023-05-10T01:51:21;13.10;99.90
18721;DHT22;9489;50.948;3.114;2023-05-10T01:53:48;13.20;99.90
18721;DHT22;9489;50.948;3.114;2023-05-10T01:56:14;13.10;99.90
18721;DHT22;9489;50.948;3.114;2023-05-10T01:58:43;13.10;99.90
18721;DHT22;9489;50.948;3.114;2023-05-10T02:01:12;13.10;99.90
18721;DHT22;9489;50.948;3.114;2023-05-10T02:03:39;13.10;99.90
18721;DHT22;9489;50.948;3.114;2023-05-10T02:06:06;13.10;99.90
18721;DHT22;9489;50.948;3.114;2023-05-10T02:08:34;13.10;99.90
18721;DHT22;9489;50.948;3.114;2023-05-10T02:11:01;13.10;99.90
18721;DHT22;9489;50.948;3.114;2023-05-10T02:13:28;13.10;99.90
18721;DHT22;9489;50.948;3.114;2023-05-10T02:15:55;13.10;99.90
18721;DHT22;9489;50.948;3.114;2023-05-10T02:18:23;13.10;99.90
18721;DHT22;9489;50.948;3.114;2023-05-10T02:20:52;13.10;99.90
18721;DHT22;9489;50.948;3.114;2023-05-10T02:23:20;13.10;99.90
18721;DHT22;9489;50.948;3.114;2023-05-10T02:25:48;13.10;99.90
18721;DHT22;9489;50.948;3.114;2023-05-10T02:28:14;13.10;99.90
18721;DHT22;9489;50.948;3.114;2023-05-10T02:30:41;13.10;99.90
18721;DHT22;9489;50.948;3.114;2023-05-10T02:33:08;13.10;99.90
18721;DHT22;9489;50.948;3.114;2023-05-10T02:35:35;13.10;99.90
18721;DHT22;9489;50.948;3.114;2023-05-10T02:38:01;13.10;99.90
18721;DHT22;9489;50.948;3.114;2023-05-10T02:40:27;13.10;99.90
18721;DHT22;9489;50.948;3.114;2023-05-10T02:42:55;13.00;99.90
18721;DHT22;9489;50.948;3.114;2023-05-10T02:45:24;13.00;99.90
18721;DHT22;9489;50.948;3.114;2023-05-10T02:47:52;13.00;99.90
18721;DHT22;9489;50.948;3.114;2023-05-10T02:50:18;13.00;99.90
18721;DHT22;9489;50.948;3.114;2023-05-10T02:52:50;13.00;99.90
18721;DHT22;9489;50.948;3.114;2023-05-10T02:55:22;12.90;99.90
18721;DHT22;9489;50.948;3.114;2023-05-10T02:57:59;12.90;99.90
18721;DHT22;9489;50.948;3.114;2023-05-10T03:00:25;12.90;99.90
18721;DHT22;9489;50.948;3.114;2023-05-10T03:02:51;12.80;99.90
18721;DHT22;9489;50.948;3.114;2023-05-10T03:05:18;12.80;99.90
18721;DHT22;9489;50.948;3.114;2023-05-10T03:07:44;12.80;99.90
18721;DHT22;9489;50.948;3.114;2023-05-10T03:10:10;12.80;99.90
18721;DHT22;9489;50.948;3.114;2023-05-10T03:18:29;12.70;99.90
18721;DHT22;9489;50.948;3.114;2023-05-10T03:21:02;12.80;99.90
18721;DHT22;9489;50.948;3.114;2023-05-10T03:23:44;12.70;99.90
18721;DHT22;9489;50.948;3.114;2023-05-10T03:26:17;12.70;99.90
18721;DHT22;9489;50.948;3.114;2023-05-10T03:28:43;12.70;99.90
18721;DHT22;9489;50.948;3.114;2023-05-10T03:31:09;12.70;99.90
18721;DHT22;9489;50.948;3.114;2023-05-10T03:33:36;12.70;99.90
18721;DHT22;9489;50.948;3.114;2023-05-10T03:36:10;12.70;99.90
18721;DHT22;9489;50.948;3.114;2023-05-10T03:38:36;12.60;99.90
18721;DHT22;9489;50.948;3.114;2023-05-10T03:41:01;12.70;99.90
18721;DHT22;9489;50.948;3.114;2023-05-10T03:43:27;12.60;99.90
18721;DHT22;9489;50.948;3.114;2023-05-10T03:45:53;12.60;99.90
18721;DHT22;9489;50.948;3.114;2023-05-10T03:48:19;12.60;99.90
18721;DHT22;9489;50.948;3.114;2023-05-10T03:50:45;12.60;99.90
18721;DHT22;9489;50.948;3.114;2023-05-10T03:53:11;12.60;99.90
18721;DHT22;9489;50.948;3.114;2023-05-10T03:55:37;12.60;99.90
18721;DHT22;9489;50.948;3.114;2023-05-10T03:58:03;12.60;99.90
18721;DHT22;9489;50.948;3.114;2023-05-10T04:00:29;12.60;99.90
18721;DHT22;9489;50.948;3.114;2023-05-10T04:02:55;12.60;99.90
18721;DHT22;9489;50.948;3.114;2023-05-10T04:05:21;12.60;99.90
18721;DHT22;9489;50.948;3.114;2023-05-10T04:07:46;12.60;99.90
18721;DHT22;9489;50.948;3.114;2023-05-10T04:10:14;12.60;99.90
18721;DHT22;9489;50.948;3.114;2023-05-10T04:12:41;12.60;99.90
18721;DHT22;9489;50.948;3.114;2023-05-10T04:15:07;12.70;99.90
18721;DHT22;9489;50.948;3.114;2023-05-10T04:17:33;12.70;99.90
18721;DHT22;9489;50.948;3.114;2023-05-10T04:19:59;12.70;99.90
18721;DHT22;9489;50.948;3.114;2023-05-10T04:22:25;12.70;99.90
18721;DHT22;9489;50.948;3.114;2023-05-10T04:24:50;12.70;99.90
18721;DHT22;9489;50.948;3.114;2023-05-10T04:27:16;12.70;99.90
18721;DHT22;9489;50.948;3.114;2023-05-10T04:29:42;12.70;99.90
18721;DHT22;9489;50.948;3.114;2023-05-10T04:32:08;12.70;99.90
18721;DHT22;9489;50.948;3.114;2023-05-10T04:34:36;12.70;99.90
18721;DHT22;9489;50.948;3.114;2023-05-10T04:37:01;12.60;99.90
18721;DHT22;9489;50.948;3.114;2023-05-10T04:39:27;12.70;99.90
18721;DHT22;9489;50.948;3.114;2023-05-10T04:41:52;12.70;99.90
18721;DHT22;9489;50.948;3.114;2023-05-10T04:44:18;12.70;99.90
18721;DHT22;9489;50.948;3.114;2023-05-10T04:46:44;12.70;99.90
18721;DHT22;9489;50.948;3.114;2023-05-10T04:49:09;12.70;99.90
18721;DHT22;9489;50.948;3.114;2023-05-10T04:51:35;12.80;99.90
18721;DHT22;9489;50.948;3.114;2023-05-10T04:54:00;12.80;99.90
18721;DHT22;9489;50.948;3.114;2023-05-10T04:56:26;12.90;99.90
18721;DHT22;9489;50.948;3.114;2023-05-10T04:58:52;12.80;99.90
18721;DHT22;9489;50.948;3.114;2023-05-10T05:01:17;12.80;99.90
18721;DHT22;9489;50.948;3.114;2023-05-10T05:03:43;12.80;99.90
18721;DHT22;9489;50.948;3.114;2023-05-10T05:06:09;12.80;99.90
18721;DHT22;9489;50.948;3.114;2023-05-10T05:08:35;12.90;99.90
18721;DHT22;9489;50.948;3.114;2023-05-10T05:11:00;12.80;99.90
18721;DHT22;9489;50.948;3.114;2023-05-10T05:13:26;12.90;99.90
18721;DHT22;9489;50.948;3.114;2023-05-10T05:15:52;12.90;99.90
18721;DHT22;9489;50.948;3.114;2023-05-10T05:18:18;12.90;99.90
18721;DHT22;9489;50.948;3.114;2023-05-10T05:20:44;12.90;99.90
18721;DHT22;9489;50.948;3.114;2023-05-10T05:23:09;12.90;99.90
18721;DHT22;9489;50.948;3.114;2023-05-10T05:25:35;12.90;99.90
18721;DHT22;9489;50.948;3.114;2023-05-10T05:28:01;13.00;99.90
18721;DHT22;9489;50.948;3.114;2023-05-10T05:30:27;13.00;99.90
18721;DHT22;9489;50.948;3.114;2023-05-10T05:32:52;13.00;99.90
18721;DHT22;9489;50.948;3.114;2023-05-10T05:35:18;13.10;99.90
18721;DHT22;9489;50.948;3.114;2023-05-10T05:37:44;13.10;99.90
18721;DHT22;9489;50.948;3.114;2023-05-10T05:40:12;13.10;99.90
18721;DHT22;9489;50.948;3.114;2023-05-10T05:42:38;13.10;99.90
18721;DHT22;9489;50.948;3.114;2023-05-10T05:45:04;13.20;99.90
18721;DHT22;9489;50.948;3.114;2023-05-10T05:47:30;13.20;99.90
18721;DHT22;9489;50.948;3.114;2023-05-10T05:49:56;13.20;99.90
18721;DHT22;9489;50.948;3.114;2023-05-10T05:52:21;13.30;99.90
18721;DHT22;9489;50.948;3.114;2023-05-10T05:54:47;13.20;99.90
18721;DHT22;9489;50.948;3.114;2023-05-10T05:57:13;13.30;99.90
18721;DHT22;9489;50.948;3.114;2023-05-10T05:59:38;13.30;99.90
18721;DHT22;9489;50.948;3.114;2023-05-10T06:02:09;13.30;99.90
18721;DHT22;9489;50.948;3.114;2023-05-10T06:04:35;13.50;99.90
18721;DHT22;9489;50.948;3.114;2023-05-10T06:07:01;13.60;99.90
18721;DHT22;9489;50.948;3.114;2023-05-10T06:09:27;13.70;99.90
18721;DHT22;9489;50.948;3.114;2023-05-10T06:11:52;13.80;99.90
18721;DHT22;9489;50.948;3.114;2023-05-10T06:14:20;13.90;99.90
18721;DHT22;9489;50.948;3.114;2023-05-10T06:16:46;14.00;99.90
18721;DHT22;9489;50.948;3.114;2023-05-10T06:19:12;14.10;99.90
18721;DHT22;9489;50.948;3.114;2023-05-10T06:21:37;14.10;99.90
18721;DHT22;9489;50.948;3.114;2023-05-10T06:24:03;14.20;99.90
18721;DHT22;9489;50.948;3.114;2023-05-10T06:26:30;14.20;99.90
18721;DHT22;9489;50.948;3.114;2023-05-10T06:28:56;14.40;99.90
18721;DHT22;9489;50.948;3.114;2023-05-10T06:31:22;14.50;99.90
18721;DHT22;9489;50.948;3.114;2023-05-10T06:33:47;14.40;99.90
18721;DHT22;9489;50.948;3.114;2023-05-10T06:36:13;14.40;99.90
18721;DHT22;9489;50.948;3.114;2023-05-10T06:38:39;14.40;99.90
18721;DHT22;9489;50.948;3.114;2023-05-10T06:41:05;14.40;99.90
18721;DHT22;9489;50.948;3.114;2023-05-10T06:43:31;14.50;99.90
18721;DHT22;9489;50.948;3.114;2023-05-10T06:45:57;14.50;99.90
18721;DHT22;9489;50.948;3.114;2023-05-10T06:48:23;14.40;99.90
18721;DHT22;9489;50.948;3.114;2023-05-10T06:50:48;14.30;99.90
18721;DHT22;9489;50.948;3.114;2023-05-10T06:53:14;14.20;99.90
18721;DHT22;9489;50.948;3.114;2023-05-10T06:55:40;14.10;99.90
18721;DHT22;9489;50.948;3.114;2023-05-10T06:58:06;14.10;99.90
18721;DHT22;9489;50.948;3.114;2023-05-10T07:00:32;14.10;99.90
18721;DHT22;9489;50.948;3.114;2023-05-10T07:02:57;14.10;99.90
18721;DHT22;9489;50.948;3.114;2023-05-10T07:05:24;14.20;99.90
18721;DHT22;9489;50.948;3.114;2023-05-10T07:07:50;14.40;99.90
18721;DHT22;9489;50.948;3.114;2023-05-10T07:10:16;14.50;99.90
18721;DHT22;9489;50.948;3.114;2023-05-10T07:12:42;14.50;99.90
18721;DHT22;9489;50.948;3.114;2023-05-10T07:15:09;14.60;99.90
18721;DHT22;9489;50.948;3.114;2023-05-10T07:17:34;14.60;99.90
18721;DHT22;9489;50.948;3.114;2023-05-10T07:20:00;14.70;99.90
18721;DHT22;9489;50.948;3.114;2023-05-10T07:22:26;14.70;99.90
18721;DHT22;9489;50.948;3.114;2023-05-10T07:24:52;14.80;99.90
18721;DHT22;9489;50.948;3.114;2023-05-10T07:27:18;14.80;99.90
18721;DHT22;9489;50.948;3.114;2023-05-10T07:29:43;14.80;99.90
18721;DHT22;9489;50.948;3.114;2023-05-10T07:32:09;14.70;99.90
18721;DHT22;9489;50.948;3.114;2023-05-10T07:34:34;14.70;99.90
18721;DHT22;9489;50.948;3.114;2023-05-10T07:37:01;14.70;99.90
18721;DHT22;9489;50.948;3.114;2023-05-10T07:39:27;14.80;99.90
18721;DHT22;9489;50.948;3.114;2023-05-10T07:41:53;14.90;99.90
18721;DHT22;9489;50.948;3.114;2023-05-10T07:44:19;15.00;99.90
18721;DHT22;9489;50.948;3.114;2023-05-10T07:46:46;15.20;99.90
18721;DHT22;9489;50.948;3.114;2023-05-10T07:49:12;15.60;99.90
18721;DHT22;9489;50.948;3.114;2023-05-10T07:51:38;16.30;99.90
18721;DHT22;9489;50.948;3.114;2023-05-10T07:54:03;16.70;99.90
18721;DHT22;9489;50.948;3.114;2023-05-10T07:56:31;17.00;58.60
18721;DHT22;9489;50.948;3.114;2023-05-10T07:58:58;17.00;1.00
18721;DHT22;9489;50.948;3.114;2023-05-10T08:01:25;16.90;1.00
18721;DHT22;9489;50.948;3.114;2023-05-10T08:03:51;16.60;1.00
18721;DHT22;9489;50.948;3.114;2023-05-10T08:06:19;16.50;20.80
18721;DHT22;9489;50.948;3.114;2023-05-10T08:08:46;16.30;36.30
18721;DHT22;9489;50.948;3.114;2023-05-10T08:11:18;16.30;20.50
18721;DHT22;9489;50.948;3.114;2023-05-10T08:13:44;16.40;25.00
18721;DHT22;9489;50.948;3.114;2023-05-10T08:16:10;16.50;28.80
18721;DHT22;9489;50.948;3.114;2023-05-10T08:18:36;16.80;1.00
18721;DHT22;9489;50.948;3.114;2023-05-10T08:21:02;17.10;1.00
18721;DHT22;9489;50.948;3.114;2023-05-10T08:23:27;17.20;1.00
18721;DHT22;9489;50.948;3.114;2023-05-10T08:25:53;17.00;1.00
18721;DHT22;9489;50.948;3.114;2023-05-10T08:28:19;16.90;1.00
18721;DHT22;9489;50.948;3.114;2023-05-10T08:30:44;16.70;1.00
18721;DHT22;9489;50.948;3.114;2023-05-10T08:33:10;16.40;1.00
18721;DHT22;9489;50.948;3.114;2023-05-10T08:35:36;16.30;1.00
18721;DHT22;9489;50.948;3.114;2023-05-10T08:38:01;16.10;9.90
18721;DHT22;9489;50.948;3.114;2023-05-10T08:40:27;16.00;27.10
18721;DHT22;9489;50.948;3.114;2023-05-10T08:43:05;15.80;65.70
18721;DHT22;9489;50.948;3.114;2023-05-10T08:45:33;15.70;65.10
18721;DHT22;9489;50.948;3.114;2023-05-10T08:48:02;15.60;80.10
18721;DHT22;9489;50.948;3.114;2023-05-10T08:50:29;15.50;98.50
18721;DHT22;9489;50.948;3.114;2023-05-10T08:52:59;15.40;99.90
18721;DHT22;9489;50.948;3.114;2023-05-10T08:55:25;15.30;99.90
18721;DHT22;9489;50.948;3.114;2023-05-10T08:57:51;15.20;99.90
18721;DHT22;9489;50.948;3.114;2023-05-10T09:00:18;15.10;99.90
18721;DHT22;9489;50.948;3.114;2023-05-10T09:02:44;15.00;99.90
18721;DHT22;9489;50.948;3.114;2023-05-10T09:05:12;15.00;99.90
18721;DHT22;9489;50.948;3.114;2023-05-10T09:07:37;15.00;99.90
18721;DHT22;9489;50.948;3.114;2023-05-10T09:10:04;15.00;99.90
18721;DHT22;9489;50.948;3.114;2023-05-10T09:12:30;15.00;99.90
18721;DHT22;9489;50.948;3.114;2023-05-10T09:14:58;15.00;99.90
18721;DHT22;9489;50.948;3.114;2023-05-10T09:17:25;15.00;99.90
18721;DHT22;9489;50.948;3.114;2023-05-10T09:20:03;15.00;99.90
18721;DHT22;9489;50.948;3.114;2023-05-10T09:22:33;15.00;99.90
18721;DHT22;9489;50.948;3.114;2023-05-10T09:25:13;15.00;99.90
18721;DHT22;9489;50.948;3.114;2023-05-10T09:27:40;14.90;99.90
18721;DHT22;9489;50.948;3.114;2023-05-10T09:30:07;14.80;99.90
18721;DHT22;9489;50.948;3.114;2023-05-10T09:32:40;14.80;99.90
18721;DHT22;9489;50.948;3.114;2023-05-10T09:37:33;14.90;99.90
18721;DHT22;9489;50.948;3.114;2023-05-10T09:39:59;15.00;99.90
18721;DHT22;9489;50.948;3.114;2023-05-10T09:42:24;15.10;99.90
18721;DHT22;9489;50.948;3.114;2023-05-10T09:44:50;15.20;99.90
18721;DHT22;9489;50.948;3.114;2023-05-10T09:47:19;15.30;99.90
18721;DHT22;9489;50.948;3.114;2023-05-10T09:49:54;15.60;99.90
18721;DHT22;9489;50.948;3.114;2023-05-10T09:52:23;15.80;99.90
18721;DHT22;9489;50.948;3.114;2023-05-10T09:54:55;16.10;99.90
18721;DHT22;9489;50.948;3.114;2023-05-10T09:57:21;16.40;99.90
18721;DHT22;9489;50.948;3.114;2023-05-10T09:59:48;16.60;46.00
18721;DHT22;9489;50.948;3.114;2023-05-10T10:02:14;16.70;30.00
18721;DHT22;9489;50.948;3.114;2023-05-10T10:04:41;16.70;25.10
18721;DHT22;9489;50.948;3.114;2023-05-10T10:07:07;16.80;1.00
18721;DHT22;9489;50.948;3.114;2023-05-10T10:09:34;16.90;1.00
18721;DHT22;9489;50.948;3.114;2023-05-10T10:12:01;16.90;1.00
18721;DHT22;9489;50.948;3.114;2023-05-10T10:14:28;17.10;1.00
18721;DHT22;9489;50.948;3.114;2023-05-10T10:16:54;17.30;1.00
18721;DHT22;9489;50.948;3.114;2023-05-10T10:19:20;17.50;1.00
18721;DHT22;9489;50.948;3.114;2023-05-10T10:21:49;17.60;1.00
18721;DHT22;9489;50.948;3.114;2023-05-10T10:24:15;18.00;1.00
18721;DHT22;9489;50.948;3.114;2023-05-10T10:26:42;18.50;1.00
18721;DHT22;9489;50.948;3.114;2023-05-10T10:34:40;18.90;99.90
18721;DHT22;9489;50.948;3.114;2023-05-10T10:37:06;19.00;99.90
18721;DHT22;9489;50.948;3.114;2023-05-10T10:39:32;19.10;99.90
18721;DHT22;9489;50.948;3.114;2023-05-10T10:41:58;19.30;99.90
18721;DHT22;9489;50.948;3.114;2023-05-10T10:49:32;19.10;1.00
18721;DHT22;9489;50.948;3.114;2023-05-10T10:52:31;19.50;1.00
18721;DHT22;9489;50.948;3.114;2023-05-10T11:00:25;22.80;1.00
18721;DHT22;9489;50.948;3.114;2023-05-10T11:02:56;24.10;1.00
18721;DHT22;9489;50.948;3.114;2023-05-10T11:07:58;24.20;1.00
18721;DHT22;9489;50.948;3.114;2023-05-10T11:10:25;23.00;99.90
18721;DHT22;9489;50.948;3.114;2023-05-10T11:13:02;21.80;99.90
18721;DHT22;9489;50.948;3.114;2023-05-10T11:15:29;20.90;40.30
18721;DHT22;9489;50.948;3.114;2023-05-10T11:17:56;21.10;1.00
18721;DHT22;9489;50.948;3.114;2023-05-10T11:20:21;22.00;1.00
18721;DHT22;9489;50.948;3.114;2023-05-10T11:22:53;23.00;1.00
18721;DHT22;9489;50.948;3.114;2023-05-10T11:25:19;23.20;99.90
18721;DHT22;9489;50.948;3.114;2023-05-10T11:27:47;22.60;1.00
18721;DHT22;9489;50.948;3.114;2023-05-10T11:30:13;22.80;99.90
18721;DHT22;9489;50.948;3.114;2023-05-10T11:32:40;22.50;99.90
18721;DHT22;9489;50.948;3.114;2023-05-10T11:35:10;22.50;99.90
18721;DHT22;9489;50.948;3.114;2023-05-10T11:37:36;22.70;99.90
18721;DHT22;9489;50.948;3.114;2023-05-10T11:40:03;22.20;1.00
18721;DHT22;9489;50.948;3.114;2023-05-10T11:42:29;21.90;99.90
18721;DHT22;9489;50.948;3.114;2023-05-10T11:44:55;21.80;99.90
18721;DHT22;9489;50.948;3.114;2023-05-10T11:47:21;22.30;99.90
18721;DHT22;9489;50.948;3.114;2023-05-10T11:49:47;22.80;1.00
18721;DHT22;9489;50.948;3.114;2023-05-10T11:52:13;23.70;99.90
18721;DHT22;9489;50.948;3.114;2023-05-10T11:54:52;24.50;1.00
18721;DHT22;9489;50.948;3.114;2023-05-10T11:57:20;25.00;99.90
18721;DHT22;9489;50.948;3.114;2023-05-10T11:59:53;24.60;1.00
18721;DHT22;9489;50.948;3.114;2023-05-10T12:02:19;24.40;99.90
18721;DHT22;9489;50.948;3.114;2023-05-10T12:04:45;24.70;1.00
18721;DHT22;9489;50.948;3.114;2023-05-10T12:07:11;24.80;1.00
18721;DHT22;9489;50.948;3.114;2023-05-10T12:09:37;24.30;1.00
18721;DHT22;9489;50.948;3.114;2023-05-10T12:12:02;24.30;1.00
18721;DHT22;9489;50.948;3.114;2023-05-10T12:14:28;24.10;1.00
18721;DHT22;9489;50.948;3.114;2023-05-10T12:16:58;24.60;1.00
18721;DHT22;9489;50.948;3.114;2023-05-10T12:19:24;24.80;1.00
18721;DHT22;9489;50.948;3.114;2023-05-10T12:21:49;24.50;1.00
18721;DHT22;9489;50.948;3.114;2023-05-10T12:24:15;24.40;1.00
18721;DHT22;9489;50.948;3.114;2023-05-10T12:26:47;24.60;1.00
18721;DHT22;9489;50.948;3.114;2023-05-10T12:29:18;24.60;99.90
18721;DHT22;9489;50.948;3.114;2023-05-10T12:31:53;24.30;1.00
18721;DHT22;9489;50.948;3.114;2023-05-10T12:34:33;24.30;1.00
18721;DHT22;9489;50.948;3.114;2023-05-10T12:37:01;24.30;99.90
18721;DHT22;9489;50.948;3.114;2023-05-10T12:39:41;24.30;99.90
18721;DHT22;9489;50.948;3.114;2023-05-10T12:42:08;24.30;1.00
18721;DHT22;9489;50.948;3.114;2023-05-10T12:44:33;24.30;1.00
18721;DHT22;9489;50.948;3.114;2023-05-10T12:46:59;24.20;1.00
18721;DHT22;9489;50.948;3.114;2023-05-10T12:49:25;24.20;99.90
18721;DHT22;9489;50.948;3.114;2023-05-10T12:51:50;23.70;1.00
18721;DHT22;9489;50.948;3.114;2023-05-10T12:54:16;23.30;1.00
18721;DHT22;9489;50.948;3.114;2023-05-10T12:56:42;23.10;1.00
18721;DHT22;9489;50.948;3.114;2023-05-10T12:59:08;22.90;1.00
18721;DHT22;9489;50.948;3.114;2023-05-10T13:01:33;23.00;1.00
18721;DHT22;9489;50.948;3.114;2023-05-10T13:03:59;23.10;1.00
18721;DHT22;9489;50.948;3.114;2023-05-10T13:06:25;23.10;1.00
18721;DHT22;9489;50.948;3.114;2023-05-10T13:08:51;23.20;99.90
18721;DHT22;9489;50.948;3.114;2023-05-10T13:11:17;22.90;1.00
18721;DHT22;9489;50.948;3.114;2023-05-10T13:13:45;23.10;1.00
18721;DHT22;9489;50.948;3.114;2023-05-10T13:16:10;23.10;1.00
18721;DHT22;9489;50.948;3.114;2023-05-10T13:18:36;22.80;1.00
18721;DHT22;9489;50.948;3.114;2023-05-10T13:21:02;22.80;1.00
18721;DHT22;9489;50.948;3.114;2023-05-10T13:23:29;22.70;1.00
18721;DHT22;9489;50.948;3.114;2023-05-10T13:25:55;22.70;1.00
18721;DHT22;9489;50.948;3.114;2023-05-10T13:28:20;22.90;1.00
18721;DHT22;9489;50.948;3.114;2023-05-10T13:30:46;22.80;1.00
18721;DHT22;9489;50.948;3.114;2023-05-10T13:33:11;22.60;1.00
18721;DHT22;9489;50.948;3.114;2023-05-10T13:35:37;22.90;99.90
18721;DHT22;9489;50.948;3.114;2023-05-10T13:38:03;22.90;99.90
18721;DHT22;9489;50.948;3.114;2023-05-10T13:40:28;22.80;1.00
18721;DHT22;9489;50.948;3.114;2023-05-10T13:42:54;22.40;99.90
18721;DHT22;9489;50.948;3.114;2023-05-10T13:45:20;22.20;1.00
18721;DHT22;9489;50.948;3.114;2023-05-10T13:47:46;22.30;1.00
18721;DHT22;9489;50.948;3.114;2023-05-10T13:50:11;22.20;1.00
18721;DHT22;9489;50.948;3.114;2023-05-10T13:52:37;22.50;1.00
18721;DHT22;9489;50.948;3.114;2023-05-10T13:55:03;22.70;1.00
18721;DHT22;9489;50.948;3.114;2023-05-10T13:57:29;22.60;1.00
18721;DHT22;9489;50.948;3.114;2023-05-10T13:59:55;22.80;1.00
18721;DHT22;9489;50.948;3.114;2023-05-10T14:02:22;22.80;1.00
18721;DHT22;9489;50.948;3.114;2023-05-10T14:04:48;22.60;1.00
18721;DHT22;9489;50.948;3.114;2023-05-10T14:07:14;22.60;1.00
18721;DHT22;9489;50.948;3.114;2023-05-10T14:09:39;22.50;1.00
18721;DHT22;9489;50.948;3.114;2023-05-10T14:12:05;22.10;1.00
18721;DHT22;9489;50.948;3.114;2023-05-10T14:14:31;22.00;1.00
18721;DHT22;9489;50.948;3.114;2023-05-10T14:16:56;21.90;1.00
18721;DHT22;9489;50.948;3.114;2023-05-10T14:19:22;21.60;1.00
18721;DHT22;9489;50.948;3.114;2023-05-10T14:21:48;21.60;1.00
18721;DHT22;9489;50.948;3.114;2023-05-10T14:24:13;21.70;1.00
18721;DHT22;9489;50.948;3.114;2023-05-10T14:26:39;21.50;1.00
18721;DHT22;9489;50.948;3.114;2023-05-10T14:29:05;21.70;1.00
18721;DHT22;9489;50.948;3.114;2023-05-10T14:31:31;21.70;1.00
18721;DHT22;9489;50.948;3.114;2023-05-10T14:33:56;21.50;1.00
18721;DHT22;9489;50.948;3.114;2023-05-10T14:36:23;21.30;1.00
18721;DHT22;9489;50.948;3.114;2023-05-10T14:38:48;21.20;64.30
18721;DHT22;9489;50.948;3.114;2023-05-10T14:41:15;21.10;74.90
18721;DHT22;9489;50.948;3.114;2023-05-10T14:43:43;21.20;99.90
18721;DHT22;9489;50.948;3.114;2023-05-10T14:46:08;21.10;99.90
18721;DHT22;9489;50.948;3.114;2023-05-10T14:48:34;21.20;99.90
18721;DHT22;9489;50.948;3.114;2023-05-10T14:51:00;20.90;1.00
18721;DHT22;9489;50.948;3.114;2023-05-10T14:53:26;20.90;74.60
18721;DHT22;9489;50.948;3.114;2023-05-10T14:55:51;20.90;1.00
18721;DHT22;9489;50.948;3.114;2023-05-10T14:58:17;21.00;1.00
18721;DHT22;9489;50.948;3.114;2023-05-10T15:00:43;20.90;1.00
18721;DHT22;9489;50.948;3.114;2023-05-10T15:03:09;20.60;1.00
18721;DHT22;9489;50.948;3.114;2023-05-10T15:05:34;20.20;1.00
18721;DHT22;9489;50.948;3.114;2023-05-10T15:08:02;20.10;99.90
18721;DHT22;9489;50.948;3.114;2023-05-10T15:10:28;19.80;99.90
18721;DHT22;9489;50.948;3.114;2023-05-10T15:12:54;19.70;1.00
18721;DHT22;9489;50.948;3.114;2023-05-10T15:15:19;19.80;1.00
18721;DHT22;9489;50.948;3.114;2023-05-10T15:17:45;19.60;99.90
18721;DHT22;9489;50.948;3.114;2023-05-10T15:20:11;19.40;1.00
18721;DHT22;9489;50.948;3.114;2023-05-10T15:22:37;19.50;99.90
18721;DHT22;9489;50.948;3.114;2023-05-10T15:25:03;19.60;1.00
18721;DHT22;9489;50.948;3.114;2023-05-10T15:27:29;19.90;1.00
18721;DHT22;9489;50.948;3.114;2023-05-10T15:29:55;20.10;1.00
18721;DHT22;9489;50.948;3.114;2023-05-10T15:32:21;20.20;99.90
18721;DHT22;9489;50.948;3.114;2023-05-10T15:34:46;20.20;99.90
18721;DHT22;9489;50.948;3.114;2023-05-10T15:37:12;20.20;1.00
18721;DHT22;9489;50.948;3.114;2023-05-10T15:39:38;20.30;99.90
18721;DHT22;9489;50.948;3.114;2023-05-10T15:42:04;20.20;99.90
18721;DHT22;9489;50.948;3.114;2023-05-10T15:44:29;20.40;99.20
18721;DHT22;9489;50.948;3.114;2023-05-10T15:46:55;20.40;4.50
18721;DHT22;9489;50.948;3.114;2023-05-10T15:49:21;20.20;1.00
18721;DHT22;9489;50.948;3.114;2023-05-10T15:51:46;20.00;99.90
18721;DHT22;9489;50.948;3.114;2023-05-10T15:54:12;19.90;49.80
18721;DHT22;9489;50.948;3.114;2023-05-10T15:56:38;19.80;1.00
18721;DHT22;9489;50.948;3.114;2023-05-10T15:59:04;19.70;55.30
18721;DHT22;9489;50.948;3.114;2023-05-10T16:01:30;19.70;99.90
18721;DHT22;9489;50.948;3.114;2023-05-10T16:03:56;19.90;99.90
18721;DHT22;9489;50.948;3.114;2023-05-10T16:06:22;19.90;99.90
18721;DHT22;9489;50.948;3.114;2023-05-10T16:08:48;19.90;99.90
18721;DHT22;9489;50.948;3.114;2023-05-10T16:11:13;19.80;99.90
18721;DHT22;9489;50.948;3.114;2023-05-10T16:13:39;19.80;1.00
18721;DHT22;9489;50.948;3.114;2023-05-10T16:16:05;19.70;1.00
18721;DHT22;9489;50.948;3.114;2023-05-10T16:18:33;19.70;99.90
18721;DHT22;9489;50.948;3.114;2023-05-10T16:20:59;19.60;99.90
18721;DHT22;9489;50.948;3.114;2023-05-10T16:23:26;19.60;1.00